createdAt,value
2022-10-17T00:02:57.596Z,13.60
2022-10-17T00:06:00.409Z,13.60
2022-10-17T00:09:03.221Z,13.70
2022-10-17T00:12:07.492Z,13.70
2022-10-17T00:15:12.522Z,13.70
2022-10-17T00:18:15.279Z,13.70
2022-10-17T00:21:18.566Z,13.70
2022-10-17T00:24:21.316Z,13.70
2022-10-17T00:27:25.770Z,13.70
2022-10-17T00:30:28.906Z,13.80
2022-10-17T00:33:32.444Z,13.80
2022-10-17T00:36:35.856Z,13.70
2022-10-17T00:39:38.911Z,13.80
2022-10-17T00:42:43.008Z,13.70
2022-10-17T00:45:45.741Z,13.70
2022-10-17T00:48:50.653Z,13.70
2022-10-17T00:51:56.093Z,13.70
2022-10-17T00:55:09.457Z,13.70
2022-10-17T00:58:13.680Z,13.80
2022-10-17T01:01:16.983Z,13.80
2022-10-17T01:04:20.577Z,13.80
2022-10-17T01:07:24.078Z,13.80
2022-10-17T01:10:32.509Z,13.80
2022-10-17T01:13:42.325Z,13.90
2022-10-17T01:16:52.331Z,13.80
2022-10-17T01:20:24.471Z,13.90
2022-10-17T01:23:42.468Z,13.90
2022-10-17T01:27:10.925Z,13.80
2022-10-17T01:30:47.913Z,13.70
2022-10-17T01:34:00.309Z,13.80
2022-10-17T01:37:07.951Z,13.70
2022-10-17T01:40:14.447Z,13.70
2022-10-17T01:43:22.069Z,13.70
2022-10-17T01:46:31.047Z,13.70
2022-10-17T01:49:36.875Z,13.70
2022-10-17T01:52:44.676Z,13.60
2022-10-17T01:55:49.901Z,13.60
2022-10-17T01:58:57.348Z,13.50
2022-10-17T02:02:01.715Z,13.50
2022-10-17T02:05:06.813Z,13.40
2022-10-17T02:08:09.897Z,13.40
2022-10-17T02:11:15.533Z,13.40
2022-10-17T02:14:28.199Z,13.30
2022-10-17T02:17:45.230Z,13.30
2022-10-17T02:20:54.269Z,13.30
2022-10-17T02:24:07.123Z,13.30
2022-10-17T02:27:16.280Z,13.30
2022-10-17T02:30:32.391Z,13.30
2022-10-17T02:33:39.292Z,13.30
2022-10-17T02:36:47.434Z,13.30
2022-10-17T02:39:51.624Z,13.40
2022-10-17T02:42:56.437Z,13.40
2022-10-17T02:45:59.369Z,13.40
2022-10-17T02:49:06.733Z,13.40
2022-10-17T02:52:15.258Z,13.40
2022-10-17T02:55:20.588Z,13.40
2022-10-17T02:58:32.455Z,13.40
2022-10-17T03:01:37.088Z,13.40
2022-10-17T03:04:43.251Z,13.40
2022-10-17T03:07:47.412Z,13.40
2022-10-17T03:10:50.330Z,13.40
2022-10-17T03:13:53.201Z,13.40
2022-10-17T03:16:55.935Z,13.40
2022-10-17T03:19:58.739Z,13.40
2022-10-17T03:23:03.073Z,13.40
2022-10-17T03:26:06.447Z,13.30
2022-10-17T03:29:09.260Z,13.40
2022-10-17T03:32:12.066Z,13.40
2022-10-17T03:35:15.250Z,13.40
2022-10-17T03:38:19.448Z,13.50
2022-10-17T03:41:22.443Z,13.40
2022-10-17T03:44:25.279Z,13.50
2022-10-17T03:47:29.632Z,13.40
2022-10-17T03:50:32.558Z,13.50
2022-10-17T03:53:36.908Z,13.50
2022-10-17T03:56:39.707Z,13.50
2022-10-17T03:59:42.512Z,13.50
2022-10-17T04:02:45.347Z,13.50
2022-10-17T04:05:48.152Z,13.50
2022-10-17T04:08:52.282Z,13.50
2022-10-17T04:11:55.226Z,13.40
2022-10-17T04:14:57.976Z,13.40
2022-10-17T04:18:00.822Z,13.40
2022-10-17T04:21:04.002Z,13.40
2022-10-17T04:24:10.901Z,13.40
2022-10-17T04:27:13.856Z,13.30
2022-10-17T04:30:16.885Z,13.40
2022-10-17T04:33:19.636Z,13.30
2022-10-17T04:36:23.314Z,13.30
2022-10-17T04:39:27.690Z,13.30
2022-10-17T04:42:30.795Z,13.30
2022-10-17T04:45:33.696Z,13.30
2022-10-17T04:48:36.692Z,13.30
2022-10-17T04:51:39.549Z,13.30
2022-10-17T04:54:43.732Z,13.30
2022-10-17T04:57:46.502Z,13.20
2022-10-17T05:00:49.852Z,13.30
2022-10-17T05:03:52.981Z,13.20
2022-10-17T05:06:55.710Z,13.30
2022-10-17T05:09:59.907Z,13.30
2022-10-17T05:13:02.702Z,13.20
2022-10-17T05:16:05.835Z,13.20
2022-10-17T05:19:08.612Z,13.20
2022-10-17T05:22:11.379Z,13.20
2022-10-17T05:25:15.837Z,13.20
2022-10-17T05:28:18.637Z,13.10
2022-10-17T05:31:21.399Z,13.10
2022-10-17T05:34:25.009Z,13.20
2022-10-17T05:37:29.797Z,13.20
2022-10-17T05:40:34.724Z,13.20
2022-10-17T05:43:37.475Z,13.20
2022-10-17T05:46:40.652Z,13.20
2022-10-17T05:49:48.559Z,13.10
2022-10-17T05:52:55.337Z,13.20
2022-10-17T05:56:00.795Z,13.20
2022-10-17T05:59:03.689Z,13.20
2022-10-17T06:02:06.507Z,13.20
2022-10-17T06:05:09.917Z,13.20
2022-10-17T06:08:12.637Z,13.30
2022-10-17T06:11:16.814Z,13.30
2022-10-17T06:14:19.735Z,13.30
2022-10-17T06:17:22.510Z,13.30
2022-10-17T06:20:25.275Z,13.40
2022-10-17T06:23:28.312Z,13.50
2022-10-17T06:26:32.414Z,13.60
2022-10-17T06:29:35.465Z,13.60
2022-10-17T06:32:38.215Z,13.60
2022-10-17T06:35:40.954Z,13.70
2022-10-17T06:38:43.729Z,13.70
2022-10-17T06:41:47.869Z,13.70
2022-10-17T06:44:50.651Z,13.80
2022-10-17T06:47:53.729Z,13.80
2022-10-17T06:51:00.485Z,13.90
2022-10-17T06:54:03.678Z,14.00
2022-10-17T06:57:07.753Z,14.10
2022-10-17T07:00:11.986Z,14.10
2022-10-17T07:03:14.722Z,14.10
2022-10-17T07:06:18.007Z,14.20
2022-10-17T07:09:21.083Z,14.20
2022-10-17T07:12:25.449Z,14.30
2022-10-17T07:15:28.203Z,14.40
2022-10-17T07:18:30.993Z,14.50
2022-10-17T07:21:36.598Z,14.60
2022-10-17T07:24:41.882Z,14.70
2022-10-17T07:27:46.039Z,14.80
2022-10-17T07:30:52.016Z,14.90
2022-10-17T07:33:57.230Z,15.00
2022-10-17T07:36:59.964Z,15.10
2022-10-17T07:40:02.915Z,15.10
2022-10-17T07:43:06.984Z,15.20
2022-10-17T07:46:11.396Z,15.30
2022-10-17T07:49:14.247Z,15.40
2022-10-17T07:52:18.461Z,15.50
2022-10-17T07:55:21.259Z,15.60
2022-10-17T07:58:25.850Z,15.70
2022-10-17T08:01:28.677Z,15.80
2022-10-17T08:04:31.487Z,16.00
2022-10-17T08:07:34.273Z,16.10
2022-10-17T08:10:37.731Z,16.20
2022-10-17T08:13:43.023Z,16.30
2022-10-17T08:16:45.854Z,16.40
2022-10-17T08:19:48.608Z,16.50
2022-10-17T08:22:54.435Z,16.70
2022-10-17T08:26:00.626Z,16.90
2022-10-17T08:29:04.748Z,17.10
2022-10-17T08:32:09.962Z,17.20
2022-10-17T08:35:14.636Z,17.30
2022-10-17T08:38:20.905Z,17.40
2022-10-17T08:41:38.677Z,17.50
2022-10-17T08:44:58.048Z,17.60
2022-10-17T08:48:02.371Z,17.80
2022-10-17T08:51:11.707Z,17.90
2022-10-17T08:54:18.847Z,18.00
2022-10-17T08:57:21.695Z,18.20
2022-10-17T09:00:27.528Z,18.30
2022-10-17T09:03:44.936Z,18.40
2022-10-17T09:06:52.394Z,18.50
2022-10-17T09:10:04.195Z,18.70
2022-10-17T09:13:18.857Z,18.90
2022-10-17T09:16:41.728Z,19.00
2022-10-17T09:19:50.161Z,19.10
2022-10-17T09:22:57.762Z,19.30
2022-10-17T09:26:02.395Z,19.50
2022-10-17T09:29:16.240Z,19.50
2022-10-17T09:32:25.108Z,19.70
2022-10-17T09:35:30.130Z,19.80
2022-10-17T09:38:39.808Z,20.00
2022-10-17T09:41:47.181Z,20.10
2022-10-17T09:44:53.205Z,20.30
2022-10-17T09:48:06.683Z,20.40
2022-10-17T09:51:25.140Z,20.40
2022-10-17T09:54:34.919Z,20.50
2022-10-17T09:57:54.440Z,20.60
2022-10-17T10:01:21.041Z,20.80
2022-10-17T10:04:30.349Z,20.90
2022-10-17T10:07:40.701Z,21.00
2022-10-17T10:10:44.628Z,21.00
2022-10-17T10:13:49.463Z,21.20
2022-10-17T10:16:54.428Z,21.40
2022-10-17T10:19:58.585Z,21.60
2022-10-17T10:23:12.166Z,21.80
2022-10-17T10:26:26.669Z,21.90
2022-10-17T10:29:32.331Z,21.90
2022-10-17T10:32:37.547Z,21.90
2022-10-17T10:35:41.829Z,21.90
2022-10-17T10:38:54.845Z,21.90
2022-10-17T10:41:57.808Z,22.00
2022-10-17T10:45:03.885Z,22.10
2022-10-17T10:48:19.935Z,22.20
2022-10-17T10:51:28.623Z,22.30
2022-10-17T10:54:36.564Z,22.50
2022-10-17T10:57:40.942Z,22.70
2022-10-17T11:00:44.278Z,22.80
2022-10-17T11:03:57.058Z,22.80
2022-10-17T11:07:05.633Z,22.90
2022-10-17T11:10:15.983Z,22.90
2022-10-17T11:13:24.385Z,22.90
2022-10-17T11:16:33.844Z,23.10
2022-10-17T11:19:43.855Z,23.20
2022-10-17T11:22:50.040Z,23.30
2022-10-17T11:25:54.892Z,23.40
2022-10-17T11:29:00.335Z,23.50
2022-10-17T11:32:07.857Z,23.60
2022-10-17T11:35:20.718Z,23.60
2022-10-17T11:38:32.057Z,23.70
2022-10-17T11:41:40.179Z,23.80
2022-10-17T11:44:44.620Z,23.90
2022-10-17T11:47:50.879Z,24.00
2022-10-17T11:54:31.461Z,24.20
2022-10-17T11:57:43.309Z,24.30
2022-10-17T12:00:58.385Z,24.30
2022-10-17T12:04:17.874Z,24.30
2022-10-17T12:07:29.251Z,24.40
2022-10-17T12:10:46.248Z,24.50
2022-10-17T12:13:54.676Z,24.60
2022-10-17T12:16:57.491Z,24.70
2022-10-17T12:20:27.363Z,24.70
2022-10-17T12:23:31.516Z,24.80
2022-10-17T12:26:35.646Z,24.80
2022-10-17T12:29:38.493Z,24.90
2022-10-17T12:33:07.505Z,24.80
2022-10-17T12:36:47.824Z,24.80
2022-10-17T12:39:51.473Z,24.80
2022-10-17T12:42:55.598Z,24.80
2022-10-17T12:45:59.295Z,24.80
2022-10-17T12:49:22.713Z,24.90
2022-10-17T12:52:29.477Z,24.90
2022-10-17T12:55:32.378Z,25.00
2022-10-17T12:58:37.430Z,24.90
2022-10-17T13:01:44.305Z,24.90
2022-10-17T13:04:48.022Z,24.80
2022-10-17T13:07:52.852Z,24.80
2022-10-17T13:10:57.537Z,24.80
2022-10-17T13:14:04.489Z,24.80
2022-10-17T13:17:08.710Z,24.60
2022-10-17T13:20:27.485Z,24.50
2022-10-17T13:23:35.658Z,24.40
2022-10-17T13:26:38.520Z,24.50
2022-10-17T13:29:46.551Z,24.40
2022-10-17T13:32:49.477Z,24.40
2022-10-17T13:36:00.757Z,24.30
2022-10-17T13:39:12.391Z,24.30
2022-10-17T13:42:23.764Z,24.30
2022-10-17T13:45:31.526Z,24.30
2022-10-17T13:48:38.904Z,24.30
2022-10-17T13:51:45.532Z,24.30
2022-10-17T13:54:51.000Z,24.20
2022-10-17T13:57:53.804Z,24.20
2022-10-17T14:00:58.747Z,24.00
2022-10-17T14:04:08.899Z,24.00
2022-10-17T14:07:27.855Z,24.00
2022-10-17T14:10:34.234Z,24.10
2022-10-17T14:13:37.113Z,24.10
2022-10-17T14:16:43.340Z,24.10
2022-10-17T14:19:55.410Z,24.10
2022-10-17T14:23:21.929Z,24.00
2022-10-17T14:26:25.568Z,24.00
2022-10-17T14:29:30.067Z,24.00
2022-10-17T14:32:36.819Z,23.90
2022-10-17T14:35:41.983Z,23.80
2022-10-17T14:38:50.855Z,23.90
2022-10-17T14:41:54.922Z,23.90
2022-10-17T14:45:04.715Z,23.90
2022-10-17T14:48:13.143Z,23.80
2022-10-17T14:51:18.191Z,23.70
2022-10-17T14:54:24.443Z,23.60
2022-10-17T14:57:41.563Z,23.50
2022-10-17T15:00:44.399Z,23.40
2022-10-17T15:03:48.593Z,23.30
2022-10-17T15:06:55.827Z,23.20
2022-10-17T15:09:58.625Z,23.20
2022-10-17T15:13:26.774Z,23.10
2022-10-17T15:16:26.334Z,23.10
2022-10-17T15:19:30.459Z,23.00
2022-10-17T15:22:36.672Z,22.90
2022-10-17T15:25:40.579Z,22.80
2022-10-17T15:28:43.516Z,22.70
2022-10-17T15:31:46.431Z,22.70
2022-10-17T15:34:50.583Z,22.60
2022-10-17T15:37:53.627Z,22.50
2022-10-17T15:40:56.408Z,22.40
2022-10-17T15:44:00.172Z,22.40
2022-10-17T15:47:03.224Z,22.30
2022-10-17T15:50:08.871Z,22.20
2022-10-17T15:53:13.288Z,22.20
2022-10-17T15:56:24.258Z,22.20
2022-10-17T15:59:32.887Z,22.10
2022-10-17T16:02:35.706Z,22.10
2022-10-17T16:05:39.794Z,22.00
2022-10-17T16:08:42.585Z,21.90
2022-10-17T16:11:46.265Z,21.90
2022-10-17T16:14:49.050Z,21.80
2022-10-17T16:17:52.343Z,21.70
2022-10-17T16:20:56.537Z,21.60
2022-10-17T16:24:00.522Z,21.50
2022-10-17T16:27:03.338Z,21.50
2022-10-17T16:30:08.674Z,21.30
2022-10-17T16:33:12.571Z,21.30
2022-10-17T16:36:16.684Z,21.20
2022-10-17T16:39:19.731Z,21.10
2022-10-17T16:42:23.328Z,21.00
2022-10-17T16:45:26.132Z,21.00
2022-10-17T16:48:29.812Z,20.90
2022-10-17T16:51:35.773Z,20.80
2022-10-17T16:54:38.636Z,20.70
2022-10-17T17:00:47.811Z,20.50
2022-10-17T17:03:51.711Z,20.40
2022-10-17T17:06:55.885Z,20.20
2022-10-17T17:09:58.659Z,20.10
2022-10-17T17:13:03.166Z,20.00
2022-10-17T17:16:08.698Z,19.80
2022-10-17T17:19:14.370Z,19.70
2022-10-17T17:22:18.483Z,19.60
2022-10-17T17:25:21.484Z,19.50
2022-10-17T17:28:26.025Z,19.40
2022-10-17T17:31:31.168Z,19.30
2022-10-17T17:34:37.076Z,19.30
2022-10-17T17:37:41.264Z,19.30
2022-10-17T17:40:50.598Z,19.20
2022-10-17T17:43:54.574Z,19.20
2022-10-17T17:46:57.348Z,19.10
2022-10-17T17:50:00.179Z,19.00
2022-10-17T17:53:04.481Z,19.00
2022-10-17T17:56:10.091Z,18.90
2022-10-17T17:59:14.480Z,18.80
2022-10-17T18:02:17.526Z,18.80
2022-10-17T18:05:20.635Z,18.70
2022-10-17T18:08:24.788Z,18.70
2022-10-17T18:11:28.858Z,18.60
2022-10-17T18:14:31.596Z,18.50
2022-10-17T18:17:35.075Z,18.40
2022-10-17T18:20:41.497Z,18.40
2022-10-17T18:23:47.918Z,18.30
2022-10-17T18:26:50.978Z,18.20
2022-10-17T18:29:53.780Z,18.10
2022-10-17T18:32:56.529Z,18.10
2022-10-17T18:36:06.934Z,18.00
2022-10-17T18:39:11.467Z,17.90
2022-10-17T18:42:14.244Z,17.90
2022-10-17T18:45:17.409Z,17.80
2022-10-17T18:48:20.217Z,17.70
2022-10-17T18:51:25.073Z,17.70
2022-10-17T18:54:32.099Z,17.70
2022-10-17T18:57:34.979Z,17.60
2022-10-17T19:00:37.998Z,17.50
2022-10-17T19:03:40.767Z,17.50
2022-10-17T19:06:44.223Z,17.50
2022-10-17T19:09:49.303Z,17.40
2022-10-17T19:12:52.068Z,17.30
2022-10-17T19:15:54.836Z,17.30
2022-10-17T19:18:59.306Z,17.20
2022-10-17T19:22:03.386Z,17.30
2022-10-17T19:25:08.105Z,17.20
2022-10-17T19:28:10.956Z,17.20
2022-10-17T19:31:16.916Z,17.20
2022-10-17T19:34:21.110Z,17.10
2022-10-17T19:37:23.952Z,17.10
2022-10-17T19:40:28.688Z,17.00
2022-10-17T19:43:31.433Z,17.00
2022-10-17T19:46:34.994Z,17.00
2022-10-17T19:49:37.743Z,17.00
2022-10-17T19:52:40.530Z,16.90
2022-10-17T19:55:44.773Z,16.90
2022-10-17T19:58:48.084Z,16.90
2022-10-17T20:01:50.934Z,16.80
2022-10-17T20:05:00.174Z,16.80
2022-10-17T20:08:17.101Z,16.80
2022-10-17T20:11:24.659Z,16.80
2022-10-17T20:14:27.484Z,16.80
2022-10-17T20:17:30.276Z,16.70
2022-10-17T20:20:35.233Z,16.70
2022-10-17T20:23:38.552Z,16.70
2022-10-17T20:26:43.408Z,16.70
2022-10-17T20:29:46.141Z,16.70
2022-10-17T20:32:48.900Z,16.70
2022-10-17T20:35:51.749Z,16.60
2022-10-17T20:38:55.479Z,16.60
2022-10-17T20:41:59.640Z,16.50
2022-10-17T20:45:02.406Z,16.50
2022-10-17T20:48:05.949Z,16.50
2022-10-17T20:51:09.777Z,16.40
2022-10-17T20:54:13.077Z,16.40
2022-10-17T20:57:17.183Z,16.40
2022-10-17T21:00:20.193Z,16.40
2022-10-17T21:03:22.965Z,16.40
2022-10-17T21:06:26.236Z,16.30
2022-10-17T21:09:29.045Z,16.30
2022-10-17T21:12:49.958Z,16.20
2022-10-17T21:15:56.039Z,16.20
2022-10-17T21:18:59.112Z,16.10
2022-10-17T21:22:02.120Z,16.10
2022-10-17T21:25:05.454Z,16.10
2022-10-17T21:28:09.583Z,16.10
2022-10-17T21:31:15.880Z,16.00
2022-10-17T21:34:21.173Z,16.00
2022-10-17T21:37:23.928Z,16.00
2022-10-17T21:40:26.747Z,15.90
2022-10-17T21:43:30.901Z,15.90
2022-10-17T21:46:34.243Z,15.90
2022-10-17T21:49:38.130Z,15.80
2022-10-17T21:52:40.922Z,15.80
2022-10-17T21:55:43.697Z,15.80
2022-10-17T21:58:48.445Z,15.80
2022-10-17T22:01:51.233Z,15.80
2022-10-17T22:04:54.062Z,15.80
2022-10-17T22:07:56.822Z,15.80
2022-10-17T22:11:04.294Z,15.80
2022-10-17T22:14:13.741Z,15.80
2022-10-17T22:17:16.508Z,15.80
2022-10-17T22:20:19.273Z,15.70
2022-10-17T22:23:22.128Z,15.70
2022-10-17T22:26:25.191Z,15.70
2022-10-17T22:29:29.362Z,15.80
2022-10-17T22:32:32.176Z,15.80
2022-10-17T22:35:34.965Z,15.70
2022-10-17T22:38:38.253Z,15.80
2022-10-17T22:41:41.295Z,15.80
2022-10-17T22:44:46.518Z,15.80
2022-10-17T22:47:49.320Z,15.80
2022-10-17T22:50:53.058Z,15.80
2022-10-17T22:53:56.025Z,15.80
2022-10-17T22:56:58.961Z,15.80
2022-10-17T23:00:03.112Z,15.70
2022-10-17T23:03:05.856Z,15.80
2022-10-17T23:06:08.798Z,15.80
2022-10-17T23:09:13.504Z,15.80
2022-10-17T23:12:16.308Z,15.90
2022-10-17T23:15:20.517Z,15.90
2022-10-17T23:18:24.249Z,15.90
2022-10-17T23:21:27.136Z,15.90
2022-10-17T23:24:30.564Z,15.90
2022-10-17T23:27:35.565Z,15.90
2022-10-17T23:30:40.447Z,15.90
2022-10-17T23:33:45.088Z,15.90
2022-10-17T23:36:48.104Z,16.00
2022-10-17T23:39:50.901Z,16.00
2022-10-17T23:42:53.711Z,16.00
2022-10-17T23:45:57.915Z,16.00
2022-10-17T23:49:00.662Z,16.00
2022-10-17T23:52:03.512Z,16.00
2022-10-17T23:55:07.432Z,16.10
2022-10-17T23:58:10.225Z,16.10
